Time;durP1;ratioP1;P1;durP2;ratioP2;P2;SDS_P1;SDS_P2;PMS_P1;PMS_P2;Temp;Humidity;BMP_temperature;BMP_pressure;BME280_temperature;BME280_humidity;BME280_pressure;Samples;Min_cycle;Max_cycle;Signal;HPM_P1;HPM_P2
2021/01/17 00:00:23;;;;;;;2.50;2.40;;;;;;;-1.92;100.00;99317.73;3934228;74;393961;-77
2021/01/17 00:05:46;;;;;;;2.00;1.90;;;;;;;-2.10;100.00;99313.38;3934674;74;383568;-77
2021/01/17 00:11:09;;;;;;;2.73;2.13;;;;;;;-2.10;100.00;99312.03;3933931;74;396116;-75
2021/01/17 00:16:30;;;;;;;3.60;3.40;;;;;;;-2.05;100.00;99307.84;3934076;74;396285;-75
2021/01/17 00:21:52;;;;;;;2.90;2.67;;;;;;;-2.04;100.00;99301.34;3934250;74;395046;-74
2021/01/17 00:27:14;;;;;;;2.57;2.40;;;;;;;-1.94;100.00;99297.02;3934263;74;391919;-75
2021/01/17 00:32:35;;;;;;;3.20;2.90;;;;;;;-1.93;100.00;99289.97;3933969;74;396359;-75
2021/01/17 00:37:58;;;;;;;8.33;3.20;;;;;;;-2.01;100.00;99281.30;3934757;74;395322;-75
2021/01/17 00:43:20;;;;;;;3.87;3.57;;;;;;;-2.08;100.00;99280.96;3934162;74;396096;-75
2021/01/17 00:48:41;;;;;;;1.40;1.17;;;;;;;-2.18;100.00;99261.59;3934853;74;383868;-75
2021/01/17 00:54:04;;;;;;;3.07;2.00;;;;;;;-2.10;100.00;99265.66;3940279;74;396044;-75
2021/01/17 00:59:25;;;;;;;1.77;1.40;;;;;;;-2.06;100.00;99251.81;3940082;74;394277;-75
2021/01/17 01:04:46;;;;;;;4.10;2.63;;;;;;;-2.00;100.00;99243.81;3940397;74;396390;-74
2021/01/17 01:10:12;;;;;;;2.00;1.90;;;;;;;-1.95;100.00;99240.17;3934243;74;396344;-75
2021/01/17 01:15:33;;;;;;;11.60;4.40;;;;;;;-1.99;100.00;99230.58;3934814;74;391941;-74
2021/01/17 01:20:54;;;;;;;2.10;2.00;;;;;;;-1.96;100.00;99228.61;3934675;74;396123;-76
2021/01/17 01:26:15;;;;;;;5.90;2.63;;;;;;;-1.96;100.00;99225.92;3934136;74;390862;-77
2021/01/17 01:31:37;;;;;;;2.80;2.60;;;;;;;-2.03;100.00;99217.50;3940036;74;396109;-77
2021/01/17 01:36:59;;;;;;;2.23;2.13;;;;;;;-2.06;100.00;99215.42;3936659;74;393223;-77
2021/01/17 01:42:20;;;;;;;2.73;1.90;;;;;;;-2.02;100.00;99212.33;3894837;75;396038;-77
2021/01/17 01:47:42;;;;;;;1.63;1.50;;;;;;;-2.15;100.00;99195.75;3894694;75;396070;-77
2021/01/17 01:53:04;;;;;;;4.73;4.43;;;;;;;-2.22;100.00;99195.42;3894502;75;396078;-77
2021/01/17 01:58:27;;;;;;;1.10;1.00;;;;;;;-2.28;100.00;99187.25;3895301;75;394038;-77
2021/01/17 02:03:51;;;;;;;3.07;2.20;;;;;;;-2.17;100.00;99179.66;3894603;75;396073;-77
2021/01/17 02:09:29;;;;;;;3.43;1.57;;;;;;;-2.18;100.00;99170.77;3894729;74;396029;-77
2021/01/17 02:14:59;;;;;;;3.60;2.97;;;;;;;-2.22;100.00;99160.39;3894693;75;396030;-77
2021/01/17 02:20:25;;;;;;;1.93;1.50;;;;;;;-2.24;100.00;99153.17;3894386;74;393990;-75
2021/01/17 02:25:48;;;;;;;5.63;3.00;;;;;;;-2.20;100.00;99141.22;3894441;74;396151;-75
2021/01/17 02:31:11;;;;;;;6.37;2.90;;;;;;;-2.21;100.00;99139.63;3894441;75;396127;-75
2021/01/17 02:36:49;;;;;;;18.43;1.80;;;;;;;-2.16;100.00;99132.19;3894680;75;393998;-75
2021/01/17 02:42:10;;;;;;;3.53;2.70;;;;;;;-2.11;100.00;99122.63;3894615;75;396395;-75
2021/01/17 02:47:31;;;;;;;2.67;2.47;;;;;;;-1.95;100.00;99122.92;3894633;74;396078;-75
2021/01/17 02:53:07;;;;;;;2.10;1.90;;;;;;;-2.05;100.00;99113.80;3895062;75;383573;-75
2021/01/17 02:58:30;;;;;;;1.30;1.20;;;;;;;-2.13;100.00;99119.44;3896275;73;384028;-75
2021/01/17 03:03:55;;;;;;;4.00;2.47;;;;;;;-2.20;100.00;99122.35;3894558;75;396103;-75
2021/01/17 03:09:16;;;;;;;2.27;2.07;;;;;;;-2.17;100.00;99129.81;3894427;74;396121;-75
2021/01/17 03:14:39;;;;;;;2.27;2.17;;;;;;;-2.16;100.00;99130.84;3894627;75;391868;-75
2021/01/17 03:20:00;;;;;;;2.63;2.43;;;;;;;-2.12;100.00;99129.12;3882913;75;396074;-75
2021/01/17 03:25:22;;;;;;;13.83;4.33;;;;;;;-2.14;100.00;99126.50;3894751;74;394245;-75
2021/01/17 03:30:43;;;;;;;4.57;2.90;;;;;;;-2.16;100.00;99128.71;3894444;75;396340;-75
2021/01/17 03:36:04;;;;;;;10.27;2.37;;;;;;;-2.14;100.00;99134.02;3894671;75;396415;-75
2021/01/17 03:41:26;;;;;;;2.20;1.60;;;;;;;-2.20;100.00;99131.25;3924636;74;396336;-75
2021/01/17 03:46:47;;;;;;;3.87;1.70;;;;;;;-2.14;100.00;99131.89;3934132;74;394041;-75
2021/01/17 03:52:08;;;;;;;1.43;1.33;;;;;;;-2.14;100.00;99129.20;3934374;74;392229;-75
2021/01/17 03:57:29;;;;;;;3.53;3.03;;;;;;;-2.19;100.00;99111.82;3933620;74;396085;-75
2021/01/17 04:02:50;;;;;;;5.00;3.13;;;;;;;-2.20;100.00;99112.39;3934441;74;395127;-75
2021/01/17 04:08:12;;;;;;;2.33;2.00;;;;;;;-2.21;100.00;99118.88;3933827;74;396336;-76
2021/01/17 04:13:33;;;;;;;9.40;3.17;;;;;;;-2.18;100.00;99124.97;3940927;74;396123;-75
2021/01/17 04:18:54;;;;;;;2.30;1.53;;;;;;;-2.16;100.00;99119.28;3933843;74;396266;-75
2021/01/17 04:24:17;;;;;;;6.03;4.17;;;;;;;-2.15;100.00;99116.83;3916040;74;390865;-75
2021/01/17 04:29:38;;;;;;;4.30;2.17;;;;;;;-2.01;100.00;99126.33;3934129;74;396076;-75
2021/01/17 04:34:59;;;;;;;5.20;2.23;;;;;;;-2.05;100.00;99125.92;3934267;74;396116;-75
2021/01/17 04:40:20;;;;;;;4.60;2.43;;;;;;;-2.17;100.00;99140.02;3934567;74;385970;-75
2021/01/17 04:45:42;;;;;;;4.37;1.10;;;;;;;-2.18;100.00;99138.44;3934486;74;394008;-75
2021/01/17 04:51:05;;;;;;;14.60;4.77;;;;;;;-2.16;100.00;99135.45;3934267;74;393982;-75
2021/01/17 04:56:31;;;;;;;2.17;2.00;;;;;;;-2.13;100.00;99126.17;3934580;74;396305;-75
2021/01/17 05:02:01;;;;;;;3.87;2.20;;;;;;;-2.14;100.00;99124.59;3934200;74;396333;-75
2021/01/17 05:07:24;;;;;;;3.23;2.60;;;;;;;-2.11;100.00;99117.23;3933870;74;396118;-75
2021/01/17 05:12:56;;;;;;;8.00;4.27;;;;;;;-2.02;100.00;99121.27;3934732;74;396045;-75
2021/01/17 05:18:18;;;;;;;8.43;2.57;;;;;;;-2.09;100.00;99120.95;3934124;74;396300;-75
2021/01/17 05:23:39;;;;;;;1.57;1.47;;;;;;;-2.13;100.00;99131.56;3934506;74;396077;-75
2021/01/17 05:29:00;;;;;;;2.33;2.13;;;;;;;-2.12;100.00;99127.77;3916022;74;396125;-75
2021/01/17 05:34:23;;;;;;;4.13;2.00;;;;;;;-2.20;100.00;99130.44;3934114;74;396301;-75
2021/01/17 05:39:56;;;;;;;2.17;2.00;;;;;;;-2.19;100.00;99138.22;3934237;74;395280;-75
2021/01/17 05:45:24;;;;;;;2.97;2.73;;;;;;;-2.20;100.00;99136.63;3933862;74;396116;-75
2021/01/17 05:50:46;;;;;;;3.40;3.17;;;;;;;-2.11;100.00;99144.72;3934105;74;396080;-75
2021/01/17 05:56:15;;;;;;;8.40;2.50;;;;;;;-2.12;100.00;99149.33;3934608;74;396385;-75
2021/01/17 06:01:38;;;;;;;7.60;2.50;;;;;;;-2.19;100.00;99149.54;3934353;74;394301;-75
2021/01/17 06:07:01;;;;;;;4.03;3.77;;;;;;;-2.21;100.00;99157.13;3934011;74;396336;-75
2021/01/17 06:12:28;;;;;;;4.27;3.83;;;;;;;-2.16;100.00;99155.66;3933983;74;396328;-75
2021/01/17 06:17:50;;;;;;;5.30;4.37;;;;;;;-2.17;100.00;99145.98;3933745;74;396365;-75
2021/01/17 06:23:13;;;;;;;2.50;2.30;;;;;;;-2.19;100.00;99146.30;3933888;74;396077;-75
2021/01/17 06:28:42;;;;;;;1.93;1.50;;;;;;;-2.16;100.00;99142.97;3934061;74;396080;-75
2021/01/17 06:34:12;;;;;;;2.53;2.27;;;;;;;-2.13;100.00;99145.04;3934720;74;394043;-75
2021/01/17 06:39:33;;;;;;;8.63;4.10;;;;;;;-2.14;100.00;99152.88;3933016;74;396103;-75
2021/01/17 06:44:55;;;;;;;6.90;2.63;;;;;;;-2.11;100.00;99160.88;3894506;75;396041;-75
2021/01/17 06:50:19;;;;;;;3.83;3.53;;;;;;;-2.03;100.00;99159.56;3906530;74;396349;-75
2021/01/17 06:55:40;;;;;;;12.17;3.70;;;;;;;-2.10;100.00;99157.86;3883765;75;396374;-75
2021/01/17 07:01:06;;;;;;;12.77;2.57;;;;;;;-2.15;100.00;99160.72;3894879;75;394246;-75
2021/01/17 07:06:46;;;;;;;1.50;1.37;;;;;;;-2.22;100.00;99161.74;3894969;74;396076;-75
2021/01/17 07:12:22;;;;;;;5.47;5.07;;;;;;;-2.17;100.00;99173.70;3894854;75;396092;-75
2021/01/17 07:17:44;;;;;;;6.40;4.10;;;;;;;-2.13;100.00;99179.26;3894550;75;396337;-75
2021/01/17 07:23:08;;;;;;;8.20;5.50;;;;;;;-2.16;100.00;99183.38;3894730;75;396364;-75
2021/01/17 07:28:33;;;;;;;2.57;1.73;;;;;;;-2.13;100.00;99185.46;3894871;74;389781;-74
2021/01/17 07:33:56;;;;;;;15.10;3.07;;;;;;;-1.97;100.00;99192.52;3895041;75;396314;-74
2021/01/17 07:39:20;;;;;;;6.37;3.37;;;;;;;-1.97;100.00;99196.03;3894349;75;394321;-74
2021/01/17 07:44:44;;;;;;;2.30;1.40;;;;;;;-1.92;100.00;99197.78;3894795;74;391962;-74
2021/01/17 07:50:09;;;;;;;2.30;2.20;;;;;;;-1.90;100.00;99201.73;3894567;75;390413;-74
2021/01/17 07:55:30;;;;;;;19.33;2.80;;;;;;;-1.99;100.00;99210.36;3894475;75;390881;-74
2021/01/17 08:00:51;;;;;;;2.27;2.17;;;;;;;-1.90;100.00;99208.48;3894926;75;392963;-74
2021/01/17 08:06:13;;;;;;;3.80;3.27;;;;;;;-1.71;100.00;99221.66;3894242;75;396136;-74
2021/01/17 08:11:55;;;;;;;6.53;5.93;;;;;;;-1.50;100.00;99223.41;3895018;75;396070;-74
2021/01/17 08:17:20;;;;;;;11.10;4.07;;;;;;;-1.39;100.00;99225.48;3894634;75;400479;-75
2021/01/17 08:22:41;;;;;;;9.23;6.07;;;;;;;-1.32;100.00;99229.05;3895158;74;396318;-74
2021/01/17 08:28:06;;;;;;;4.90;4.50;;;;;;;-1.24;100.00;99223.64;3895282;74;391853;-74
2021/01/17 08:33:28;;;;;;;1.33;1.23;;;;;;;-1.18;100.00;99228.31;3896122;73;392912;-74
2021/01/17 08:38:49;;;;;;;5.43;3.93;;;;;;;-1.19;100.00;99226.73;3894880;75;396156;-74
2021/01/17 08:44:15;;;;;;;5.37;4.87;;;;;;;-1.16;100.00;99225.53;3925032;74;396054;-75
2021/01/17 08:49:38;;;;;;;4.47;2.87;;;;;;;-1.19;100.00;99223.49;3934327;74;396348;-74
2021/01/17 08:54:59;;;;;;;5.30;4.47;;;;;;;-1.12;100.00;99229.73;3934139;74;390191;-74
2021/01/17 09:00:21;;;;;;;2.53;2.43;;;;;;;-1.13;100.00;99229.52;3934130;74;396096;-74
2021/01/17 09:05:43;;;;;;;2.60;1.80;;;;;;;-0.97;100.00;99234.66;3934289;74;396049;-74
2021/01/17 09:11:04;;;;;;;4.07;3.70;;;;;;;-0.80;100.00;99241.59;3934148;74;396501;-74
2021/01/17 09:16:25;;;;;;;3.97;3.63;;;;;;;-0.68;100.00;99249.83;3934555;74;391892;-74
2021/01/17 09:21:50;;;;;;;8.90;2.47;;;;;;;-0.61;100.00;99256.88;3934596;74;396076;-74
2021/01/17 09:27:11;;;;;;;9.70;3.00;;;;;;;-0.70;100.00;99264.20;3934481;74;396330;-74
2021/01/17 09:32:35;;;;;;;8.10;5.00;;;;;;;-0.66;100.00;99273.27;3934977;74;396029;-74
2021/01/17 09:38:00;;;;;;;3.00;2.47;;;;;;;-0.58;100.00;99279.75;3934087;74;396400;-73
2021/01/17 09:43:21;;;;;;;4.30;2.10;;;;;;;-0.61;100.00;99286.59;3915192;74;396125;-73
2021/01/17 09:48:42;;;;;;;3.73;3.43;;;;;;;-0.51;100.00;99290.31;3894539;74;396384;-74
2021/01/17 09:54:04;;;;;;;3.30;2.23;;;;;;;-0.43;100.00;99293.55;3894793;75;391895;-73
2021/01/17 09:59:25;;;;;;;8.90;3.70;;;;;;;-0.30;100.00;99298.52;3895215;75;396105;-73
2021/01/17 10:04:50;;;;;;;1.97;1.73;;;;;;;-0.15;100.00;99304.73;3894957;75;396156;-73
2021/01/17 10:10:13;;;;;;;2.40;2.17;;;;;;;-0.08;100.00;99312.56;3894564;75;396104;-73
2021/01/17 10:15:35;;;;;;;3.60;3.40;;;;;;;0.17;100.00;99320.58;3894837;75;396164;-74
2021/01/17 10:20:57;;;;;;;4.67;4.27;;;;;;;0.40;100.00;99321.11;3906861;74;396329;-73
2021/01/17 10:26:23;;;;;;;17.23;2.77;;;;;;;0.02;100.00;99322.48;3906954;74;395307;-73
2021/01/17 10:31:48;;;;;;;2.83;2.63;;;;;;;-0.02;100.00;99314.77;3894861;74;383577;-74
2021/01/17 10:37:12;;;;;;;8.00;2.37;;;;;;;0.11;100.00;99317.02;3894776;75;396236;-74
2021/01/17 10:42:34;;;;;;;3.73;1.53;;;;;;;0.26;100.00;99307.00;3902228;74;383805;-73
2021/01/17 10:48:10;;;;;;;4.30;2.80;;;;;;;0.57;100.00;99298.78;3934128;74;396068;-73
2021/01/17 10:53:45;;;;;;;3.70;3.50;;;;;;;0.78;100.00;99304.20;3934267;74;396398;-73
2021/01/17 10:59:05;;;;;;;5.73;4.63;;;;;;;1.05;100.00;99306.59;3933966;74;396144;-73
2021/01/17 11:04:29;;;;;;;4.27;3.97;;;;;;;0.84;100.00;99304.47;3934194;74;394994;-72
2021/01/17 11:09:50;;;;;;;4.37;3.27;;;;;;;0.87;100.00;99320.06;3934283;74;396065;-74
2021/01/17 11:15:16;;;;;;;6.13;5.03;;;;;;;0.36;100.00;99313.39;3934613;74;393977;-74
2021/01/17 11:20:38;;;;;;;3.10;2.10;;;;;;;1.04;100.00;99315.87;3934296;74;396136;-74
2021/01/17 11:26:05;;;;;;;9.60;3.23;;;;;;;1.38;100.00;99310.70;3934691;74;396139;-74
2021/01/17 11:31:27;;;;;;;2.60;2.40;;;;;;;1.73;100.00;99309.45;3934066;74;396380;-74
2021/01/17 11:36:58;;;;;;;7.93;4.47;;;;;;;2.21;100.00;99305.98;3934715;74;394284;-73
2021/01/17 11:42:20;;;;;;;5.13;4.03;;;;;;;2.44;100.00;99305.20;3933827;74;389845;-74
2021/01/17 11:47:44;;;;;;;4.33;2.80;;;;;;;2.45;99.83;99304.07;3933828;74;396130;-74
2021/01/17 11:53:08;;;;;;;4.63;4.00;;;;;;;2.65;98.61;99306.65;3933973;74;396091;-74
2021/01/17 11:58:31;;;;;;;5.93;4.07;;;;;;;2.79;98.26;99298.92;3934508;74;390106;-74
2021/01/17 12:04:03;;;;;;;2.43;2.17;;;;;;;2.80;97.78;99299.15;3934159;74;396090;-74
2021/01/17 12:09:25;;;;;;;8.37;3.67;;;;;;;2.76;93.69;99303.67;3935025;74;396036;-74
2021/01/17 12:14:46;;;;;;;7.33;5.53;;;;;;;2.65;98.80;99294.98;3934667;74;394072;-74
2021/01/17 12:20:08;;;;;;;4.30;4.00;;;;;;;2.67;96.77;99303.00;3934036;74;396076;-74
2021/01/17 12:25:29;;;;;;;5.53;4.20;;;;;;;2.43;98.45;99304.97;3934288;74;389849;-75
2021/01/17 12:30:51;;;;;;;6.70;4.17;;;;;;;2.60;97.27;99302.02;3934822;74;391910;-75
2021/01/17 12:36:18;;;;;;;10.83;3.67;;;;;;;2.47;98.68;99308.02;3934668;74;396109;-75
2021/01/17 12:41:43;;;;;;;4.63;2.50;;;;;;;2.55;99.30;99315.25;3934162;74;396088;-75
2021/01/17 12:47:06;;;;;;;10.93;4.43;;;;;;;2.38;99.97;99307.92;3934139;74;396341;-77
2021/01/17 12:52:28;;;;;;;4.67;4.27;;;;;;;2.26;99.25;99307.91;3933911;74;396310;-77
2021/01/17 12:57:49;;;;;;;4.77;3.17;;;;;;;2.01;100.00;99306.31;3934178;74;396087;-78
2021/01/17 13:03:10;;;;;;;11.83;6.37;;;;;;;1.72;100.00;99313.29;3934105;74;396062;-78
2021/01/17 13:08:34;;;;;;;2.30;2.20;;;;;;;1.63;100.00;99315.84;3933839;74;396077;-77
2021/01/17 13:13:55;;;;;;;9.27;5.07;;;;;;;1.76;100.00;99320.97;3934704;74;396174;-78
2021/01/17 13:19:16;;;;;;;9.23;5.40;;;;;;;1.73;100.00;99314.87;3934532;74;396339;-78
2021/01/17 13:24:37;;;;;;;14.17;4.63;;;;;;;1.64;100.00;99315.53;3934216;74;396076;-78
2021/01/17 13:29:58;;;;;;;5.37;4.77;;;;;;;1.70;100.00;99322.86;3929244;74;396150;-79
2021/01/17 13:35:20;;;;;;;16.27;6.40;;;;;;;1.61;100.00;99330.33;3906004;74;390894;-77
2021/01/17 13:40:43;;;;;;;2.90;2.70;;;;;;;1.76;100.00;99336.45;3874834;74;396599;-77
2021/01/17 13:46:04;;;;;;;6.43;4.80;;;;;;;1.74;100.00;99334.64;3858500;74;396324;-76
2021/01/17 13:51:25;;;;;;;5.13;3.47;;;;;;;1.84;100.00;99343.70;3840886;75;396126;-77
2021/01/17 13:56:46;;;;;;;2.87;2.23;;;;;;;1.86;100.00;99343.59;3827627;77;396115;-77
2021/01/17 14:02:12;;;;;;;10.23;4.57;;;;;;;2.00;100.00;99346.00;3827935;75;396119;-77
2021/01/17 14:07:33;;;;;;;4.20;3.13;;;;;;;1.90;100.00;99353.98;3827765;75;396114;-77
2021/01/17 14:12:54;;;;;;;9.30;5.03;;;;;;;1.61;100.00;99352.02;3828234;75;394039;-77
2021/01/17 14:18:16;;;;;;;5.00;2.60;;;;;;;1.43;100.00;99364.69;3827997;75;390817;-77
2021/01/17 14:23:37;;;;;;;13.80;5.67;;;;;;;1.23;100.00;99370.92;3828124;75;400277;-76
2021/01/17 14:28:58;;;;;;;3.40;3.10;;;;;;;1.07;100.00;99378.06;3827672;75;396294;-77
2021/01/17 14:34:19;;;;;;;4.00;2.87;;;;;;;0.98;100.00;99386.23;3827763;75;396148;-78
2021/01/17 14:39:40;;;;;;;2.73;2.53;;;;;;;0.92;100.00;99399.75;3827884;75;396138;-77
2021/01/17 14:45:02;;;;;;;16.93;5.20;;;;;;;0.87;100.00;99405.36;3827769;75;396097;-77
2021/01/17 14:50:23;;;;;;;10.73;5.13;;;;;;;0.80;100.00;99407.80;3828138;75;394243;-77
2021/01/17 14:55:44;;;;;;;4.00;3.60;;;;;;;0.73;100.00;99407.30;3827793;77;396111;-77
2021/01/17 15:01:05;;;;;;;5.00;3.03;;;;;;;0.63;100.00;99420.63;3827680;75;396317;-77
2021/01/17 15:06:27;;;;;;;9.20;4.40;;;;;;;0.54;100.00;99419.08;3827928;75;396354;-79
2021/01/17 15:11:48;;;;;;;3.03;2.83;;;;;;;0.57;100.00;99430.05;3827594;75;396408;-78
2021/01/17 15:17:10;;;;;;;6.43;3.13;;;;;;;0.46;100.00;99442.92;3828298;75;388785;-78
2021/01/17 15:22:31;;;;;;;4.17;3.83;;;;;;;0.39;100.00;99452.10;3827872;75;391932;-78
2021/01/17 15:27:52;;;;;;;12.47;5.77;;;;;;;0.27;100.00;99462.79;3828246;75;396122;-78
2021/01/17 15:33:13;;;;;;;2.60;2.50;;;;;;;0.26;100.00;99470.67;3828393;75;389774;-78
2021/01/17 15:38:38;;;;;;;6.50;3.50;;;;;;;0.20;100.00;99478.73;3827725;75;396324;-78
2021/01/17 15:44:00;;;;;;;7.60;3.10;;;;;;;0.17;100.00;99478.81;3829368;75;396353;-78
2021/01/17 15:49:21;;;;;;;6.13;4.27;;;;;;;0.10;100.00;99479.88;3827949;75;396389;-78
2021/01/17 15:54:43;;;;;;;3.70;3.50;;;;;;;-0.10;100.00;99481.09;3827736;77;396127;-78
2021/01/17 16:00:07;;;;;;;4.20;3.13;;;;;;;-0.08;100.00;99493.72;3827911;75;396079;-78
2021/01/17 16:05:28;;;;;;;5.57;3.97;;;;;;;-0.08;100.00;99499.13;3827940;75;396342;-78
2021/01/17 16:10:49;;;;;;;4.80;3.77;;;;;;;-0.06;100.00;99500.95;3827619;75;396119;-77
2021/01/17 16:16:11;;;;;;;15.17;5.10;;;;;;;-0.17;100.00;99500.25;3827903;75;396122;-78
2021/01/17 16:21:33;;;;;;;8.73;5.30;;;;;;;-0.13;100.00;99508.76;3828265;75;388725;-78
2021/01/17 16:26:54;;;;;;;3.33;2.50;;;;;;;-0.16;100.00;99520.20;3827603;75;396330;-77
2021/01/17 16:32:15;;;;;;;4.30;3.50;;;;;;;-0.25;100.00;99528.89;3827995;75;396402;-76
2021/01/17 16:37:37;;;;;;;1.80;1.70;;;;;;;-0.24;100.00;99533.16;3827825;76;396078;-77
2021/01/17 16:42:58;;;;;;;3.40;3.10;;;;;;;-0.10;100.00;99544.63;3828272;75;396264;-76
2021/01/17 16:48:19;;;;;;;7.03;4.53;;;;;;;-0.15;100.00;99543.42;3841443;75;391905;-76
2021/01/17 16:53:40;;;;;;;5.00;3.20;;;;;;;-0.20;100.00;99547.65;3847550;75;396087;-76
2021/01/17 16:59:02;;;;;;;1.80;1.63;;;;;;;-0.30;100.00;99546.60;3847747;75;396079;-76
2021/01/17 17:04:23;;;;;;;5.27;4.83;;;;;;;-0.45;100.00;99545.72;3847606;75;396149;-77
2021/01/17 17:09:44;;;;;;;3.67;3.37;;;;;;;-0.46;100.00;99548.17;3847708;75;396377;-76
2021/01/17 17:15:06;;;;;;;15.83;4.67;;;;;;;-0.40;100.00;99564.47;3847536;75;396046;-77
2021/01/17 17:20:28;;;;;;;4.73;2.60;;;;;;;-0.44;100.00;99556.77;3847471;75;396516;-75
2021/01/17 17:25:49;;;;;;;2.93;2.83;;;;;;;-0.41;100.00;99560.74;3847679;75;391861;-75
2021/01/17 17:31:10;;;;;;;4.10;2.73;;;;;;;-0.36;100.00;99561.39;3847371;75;396169;-75
2021/01/17 17:36:31;;;;;;;4.40;3.97;;;;;;;-0.32;100.00;99565.03;3847333;75;396034;-76
2021/01/17 17:41:52;;;;;;;5.70;4.63;;;;;;;-0.38;100.00;99568.23;3848014;75;391948;-76
2021/01/17 17:47:13;;;;;;;8.03;5.00;;;;;;;-0.48;100.00;99565.25;3842012;75;394073;-75
2021/01/17 17:52:35;;;;;;;3.20;2.03;;;;;;;-0.33;100.00;99578.88;3827911;75;396291;-75
2021/01/17 17:57:56;;;;;;;8.40;3.27;;;;;;;-0.42;100.00;99580.77;3828847;75;394039;-75
2021/01/17 18:03:17;;;;;;;10.53;6.50;;;;;;;-0.44;100.00;99592.44;3828315;75;391080;-75
2021/01/17 18:08:38;;;;;;;18.20;4.83;;;;;;;-0.56;100.00;99588.22;3828364;75;394047;-75
2021/01/17 18:13:59;;;;;;;7.23;4.60;;;;;;;-0.59;100.00;99593.70;3828863;76;396035;-76
2021/01/17 18:19:20;;;;;;;6.40;5.40;;;;;;;-0.58;100.00;99589.89;3828718;77;396370;-75
2021/01/17 18:24:42;;;;;;;4.30;2.83;;;;;;;-0.37;100.00;99599.55;3827566;77;396082;-75
2021/01/17 18:30:03;;;;;;;4.63;3.27;;;;;;;-0.60;100.00;99607.50;3827736;75;396122;-75
2021/01/17 18:35:24;;;;;;;2.13;2.03;;;;;;;-0.62;100.00;99603.77;3828017;75;396437;-75
2021/01/17 18:40:46;;;;;;;6.60;3.20;;;;;;;-0.59;100.00;99597.75;3827953;75;396071;-75
2021/01/17 18:46:07;;;;;;;6.37;5.90;;;;;;;-0.67;100.00;99611.22;3828425;75;396122;-75
2021/01/17 18:51:28;;;;;;;2.97;2.43;;;;;;;-0.69;100.00;99618.30;3827793;75;396062;-74
2021/01/17 18:56:50;;;;;;;13.90;5.00;;;;;;;-0.61;100.00;99618.09;3827837;75;396359;-74
2021/01/17 19:02:14;;;;;;;8.70;6.03;;;;;;;-0.69;100.00;99619.64;3828521;75;389830;-74
2021/01/17 19:07:35;;;;;;;3.57;3.27;;;;;;;-0.63;100.00;99611.63;3827733;76;396070;-75
2021/01/17 19:12:56;;;;;;;11.10;4.20;;;;;;;-0.56;100.00;99607.91;3827452;75;400240;-74
2021/01/17 19:18:17;;;;;;;6.30;3.83;;;;;;;-0.41;100.00;99608.84;3828334;75;393999;-75
2021/01/17 19:23:39;;;;;;;4.13;3.90;;;;;;;-0.59;100.00;99603.69;3827591;75;396347;-75
2021/01/17 19:29:00;;;;;;;10.80;5.87;;;;;;;-0.57;100.00;99612.29;3828362;75;396086;-75
2021/01/17 19:34:21;;;;;;;7.20;4.40;;;;;;;-0.45;100.00;99624.08;3828469;75;396093;-74
2021/01/17 19:39:42;;;;;;;4.00;3.10;;;;;;;-0.51;100.00;99614.55;3828049;75;396097;-74
2021/01/17 19:45:05;;;;;;;5.47;4.43;;;;;;;-0.62;100.00;99613.80;3827766;75;396169;-74
2021/01/17 19:50:27;;;;;;;15.13;6.90;;;;;;;-0.50;100.00;99616.14;3841062;75;396067;-74
2021/01/17 19:55:48;;;;;;;4.43;4.13;;;;;;;-0.36;100.00;99613.28;3847128;75;396089;-74
2021/01/17 20:01:09;;;;;;;5.37;5.10;;;;;;;-0.40;100.00;99615.82;3847533;76;396330;-74
2021/01/17 20:06:32;;;;;;;7.17;6.20;;;;;;;-0.49;100.00;99616.38;3848102;76;396078;-75
2021/01/17 20:11:53;;;;;;;11.67;5.60;;;;;;;-0.61;100.00;99617.52;3847449;75;396030;-75
2021/01/17 20:17:16;;;;;;;6.73;6.07;;;;;;;-0.54;100.00;99617.08;3847850;75;394049;-74
2021/01/17 20:22:40;;;;;;;7.67;6.90;;;;;;;-0.38;100.00;99619.58;3848477;75;386779;-74
2021/01/17 20:28:01;;;;;;;7.60;2.83;;;;;;;-0.36;100.00;99611.93;3848643;73;394463;-74
2021/01/17 20:33:22;;;;;;;5.10;4.67;;;;;;;-0.39;100.00;99611.23;3847229;75;396122;-74
2021/01/17 20:38:43;;;;;;;4.80;3.43;;;;;;;-0.47;100.00;99619.54;3847593;75;396094;-74
2021/01/17 20:44:08;;;;;;;6.73;4.60;;;;;;;-0.42;100.00;99621.30;3848488;75;396487;-74
2021/01/17 20:49:29;;;;;;;6.03;4.10;;;;;;;-0.50;100.00;99632.34;3847654;75;396091;-75
2021/01/17 20:54:51;;;;;;;3.37;3.10;;;;;;;-0.37;100.00;99626.58;3847447;75;396374;-74
2021/01/17 21:00:13;;;;;;;4.27;3.90;;;;;;;-0.40;100.00;99627.98;3847068;75;396362;-75
2021/01/17 21:05:35;;;;;;;6.10;3.70;;;;;;;-0.37;100.00;99632.77;3847566;75;386769;-74
2021/01/17 21:10:56;;;;;;;6.00;4.40;;;;;;;-0.36;100.00;99634.36;3848138;75;394050;-74
2021/01/17 21:16:17;;;;;;;5.53;5.00;;;;;;;-0.40;100.00;99635.30;3847299;75;396331;-75
2021/01/17 21:21:38;;;;;;;2.93;1.70;;;;;;;-0.41;100.00;99637.23;3847908;75;389802;-74
2021/01/17 21:27:01;;;;;;;4.73;4.23;;;;;;;-0.39;100.00;99628.80;3847778;75;396066;-75
2021/01/17 21:32:23;;;;;;;5.90;4.47;;;;;;;-0.47;100.00;99631.70;3847890;75;394030;-74
2021/01/17 21:37:44;;;;;;;5.17;4.73;;;;;;;-0.39;100.00;99636.90;3847837;76;386805;-74
2021/01/17 21:43:05;;;;;;;5.03;3.33;;;;;;;-0.46;100.00;99643.33;3847552;75;396063;-74
2021/01/17 21:48:26;;;;;;;16.10;7.40;;;;;;;-0.45;100.00;99645.70;3845937;75;396114;-74
2021/01/17 21:53:47;;;;;;;6.93;6.33;;;;;;;-0.44;100.00;99653.24;3828551;75;389787;-74
2021/01/17 21:59:08;;;;;;;3.13;2.87;;;;;;;-0.42;100.00;99650.49;3827583;75;396096;-74
2021/01/17 22:04:29;;;;;;;9.50;5.27;;;;;;;-0.37;100.00;99653.04;3828389;75;396334;-74
2021/01/17 22:09:51;;;;;;;3.23;2.60;;;;;;;-0.32;100.00;99650.17;3827792;75;396099;-74
2021/01/17 22:15:14;;;;;;;3.63;3.30;;;;;;;-0.14;100.00;99655.87;3828010;77;396125;-74
2021/01/17 22:20:35;;;;;;;7.70;2.70;;;;;;;-0.34;100.00;99652.42;3828524;76;391859;-74
2021/01/17 22:25:56;;;;;;;6.73;6.13;;;;;;;-0.37;100.00;99648.20;3828354;75;396173;-74
2021/01/17 22:31:17;;;;;;;4.27;2.43;;;;;;;-0.37;100.00;99657.09;3827802;75;396446;-74
2021/01/17 22:36:40;;;;;;;4.87;4.23;;;;;;;-0.30;100.00;99651.23;3828227;75;394216;-75
2021/01/17 22:42:01;;;;;;;5.03;2.90;;;;;;;-0.10;100.00;99650.08;3828318;75;396083;-75
2021/01/17 22:47:22;;;;;;;11.00;4.80;;;;;;;-0.08;100.00;99643.78;3827994;75;396107;-74
2021/01/17 22:52:45;;;;;;;3.40;3.20;;;;;;;-0.12;100.00;99645.54;3827709;77;396174;-74
2021/01/17 22:58:08;;;;;;;6.03;3.93;;;;;;;0.20;100.00;99642.39;3827971;77;396070;-74
2021/01/17 23:03:29;;;;;;;8.10;3.83;;;;;;;0.23;100.00;99647.95;3828501;75;396111;-74
2021/01/17 23:08:51;;;;;;;7.80;3.67;;;;;;;0.22;100.00;99649.64;3828696;75;396090;-74
2021/01/17 23:14:12;;;;;;;4.47;4.17;;;;;;;0.22;100.00;99652.34;3828023;75;396354;-74
2021/01/17 23:19:34;;;;;;;2.93;2.70;;;;;;;0.20;100.00;99643.17;3827997;75;396109;-75
2021/01/17 23:24:55;;;;;;;6.70;5.57;;;;;;;0.26;100.00;99634.34;3828872;75;396110;-74
2021/01/17 23:30:18;;;;;;;2.97;2.70;;;;;;;0.30;100.00;99642.86;3827795;75;396417;-74
2021/01/17 23:35:39;;;;;;;6.63;2.93;;;;;;;0.26;100.00;99635.70;3828378;77;394032;-74
2021/01/17 23:41:00;;;;;;;17.47;6.53;;;;;;;0.25;100.00;99635.45;3827339;75;393941;-74
2021/01/17 23:46:21;;;;;;;10.73;4.60;;;;;;;0.44;100.00;99629.16;3827937;75;393991;-74
2021/01/17 23:51:43;;;;;;;5.13;3.57;;;;;;;0.58;100.00;99628.42;3837821;75;396318;-74
2021/01/17 23:57:04;;;;;;;2.40;2.10;;;;;;;0.49;100.00;99627.64;3846982;75;395066;-74
